KLGD

Details ICAO KLGD
Name LA GRANDE UNION CO
Region United States
Timezone America/Los_Angeles (UTC-8.0)
Plans Departing 6
Arriving 4
Stats Elevation 2,717 ft / 828 m (AMSL)
Location 45.290238° -118.007736°
Runways 2
Magnetic Variation 14.216° E
Sunrise 2017-12-17 15:27:31 UTC / 2017-12-17 07:27:31 Local
Sunset 2017-12-18 00:11:50 UTC / 2017-12-17 16:11:50 Local
Advertisement - Login to hide

Runways

ID Width Length Bearing (true) Bearing (mag) Surface Threshold Offset Overrun Length
12 100 ft / 30 m 5,593 ft / 1,705 m 135.12° 120.90° Asphalt 0 ft / 0 m 0 ft / 0 m
16 60 ft / 18 m 3,879 ft / 1,182 m 180.00° 165.78° Asphalt 486 ft / 148 m 0 ft / 0 m
30 100 ft / 30 m 5,593 ft / 1,705 m 315.13° 300.91° Asphalt 0 ft / 0 m 0 ft / 0 m
34 60 ft / 18 m 3,879 ft / 1,182 m 0.00° 345.78° Asphalt 0 ft / 0 m 0 ft / 0 m

Map

Weather


0- 5 10 15 20 25 30 35+ Temperature / ° C

Clouds and Precipitation
Forecast for 2017-12-18 00:00 UTC. Updated 19 minutes ago

Ground ~20,000 ft ~40,000 ft Winds

METAR

KLGD 172056Z AUTO 19019KT 10SM OVC031 01/M05 A3016 RMK AO2 SLP347 T00111050 58017 FZRANO

TAF

Not found

Frequencies

Recorded 135.07 MHz AWOS 3
Unicom 122.80 MHz CTAF/UNICOM
Warning: Do not use this data for real-world aviation or navigation. No guarantee of current accuracy is given.